sensor_id;sensor_type;location;lat;lon;timestamp;P1;durP1;ratioP1;P2;durP2;ratioP2
8327;SDS011;4201;48.754;8.864;2022-08-19T00:01:51;30.77;;;24.23;;
8327;SDS011;4201;48.754;8.864;2022-08-19T00:04:18;27.70;;;24.17;;
8327;SDS011;4201;48.754;8.864;2022-08-19T00:06:45;26.83;;;22.93;;
8327;SDS011;4201;48.754;8.864;2022-08-19T00:09:13;30.63;;;24.57;;
8327;SDS011;4201;48.754;8.864;2022-08-19T00:11:40;30.17;;;24.70;;
8327;SDS011;4201;48.754;8.864;2022-08-19T00:14:08;29.40;;;23.60;;
8327;SDS011;4201;48.754;8.864;2022-08-19T00:16:34;30.37;;;24.20;;
8327;SDS011;4201;48.754;8.864;2022-08-19T00:19:01;28.23;;;24.00;;
8327;SDS011;4201;48.754;8.864;2022-08-19T00:21:27;26.87;;;23.57;;
8327;SDS011;4201;48.754;8.864;2022-08-19T00:23:53;28.33;;;24.00;;
8327;SDS011;4201;48.754;8.864;2022-08-19T00:26:24;27.27;;;24.27;;
8327;SDS011;4201;48.754;8.864;2022-08-19T00:28:50;29.37;;;26.27;;
8327;SDS011;4201;48.754;8.864;2022-08-19T00:31:17;28.03;;;24.87;;
8327;SDS011;4201;48.754;8.864;2022-08-19T00:33:43;31.30;;;26.40;;
8327;SDS011;4201;48.754;8.864;2022-08-19T00:36:10;43.40;;;28.00;;
8327;SDS011;4201;48.754;8.864;2022-08-19T00:38:37;33.93;;;27.23;;
8327;SDS011;4201;48.754;8.864;2022-08-19T00:41:04;33.67;;;25.00;;
8327;SDS011;4201;48.754;8.864;2022-08-19T00:43:32;33.00;;;28.40;;
8327;SDS011;4201;48.754;8.864;2022-08-19T00:45:58;31.00;;;25.23;;
8327;SDS011;4201;48.754;8.864;2022-08-19T00:48:26;35.13;;;26.70;;
8327;SDS011;4201;48.754;8.864;2022-08-19T00:50:52;33.73;;;28.27;;
8327;SDS011;4201;48.754;8.864;2022-08-19T00:53:22;33.93;;;28.23;;
8327;SDS011;4201;48.754;8.864;2022-08-19T00:55:49;31.90;;;27.57;;
8327;SDS011;4201;48.754;8.864;2022-08-19T00:58:17;39.80;;;30.23;;
8327;SDS011;4201;48.754;8.864;2022-08-19T01:00:45;40.80;;;28.00;;
8327;SDS011;4201;48.754;8.864;2022-08-19T01:03:13;31.57;;;27.90;;
8327;SDS011;4201;48.754;8.864;2022-08-19T01:05:39;37.90;;;29.20;;
8327;SDS011;4201;48.754;8.864;2022-08-19T01:08:06;33.53;;;28.77;;
8327;SDS011;4201;48.754;8.864;2022-08-19T01:10:35;34.33;;;27.70;;
8327;SDS011;4201;48.754;8.864;2022-08-19T01:13:02;33.27;;;28.73;;
8327;SDS011;4201;48.754;8.864;2022-08-19T01:15:31;32.77;;;29.10;;
8327;SDS011;4201;48.754;8.864;2022-08-19T01:17:59;37.30;;;29.40;;
8327;SDS011;4201;48.754;8.864;2022-08-19T01:20:26;35.67;;;28.20;;
8327;SDS011;4201;48.754;8.864;2022-08-19T01:22:55;37.07;;;29.73;;
8327;SDS011;4201;48.754;8.864;2022-08-19T01:25:22;36.50;;;28.87;;
8327;SDS011;4201;48.754;8.864;2022-08-19T01:27:51;33.43;;;27.93;;
8327;SDS011;4201;48.754;8.864;2022-08-19T01:30:20;39.47;;;30.43;;
8327;SDS011;4201;48.754;8.864;2022-08-19T01:32:47;35.07;;;30.23;;
8327;SDS011;4201;48.754;8.864;2022-08-19T01:35:13;36.13;;;30.53;;
8327;SDS011;4201;48.754;8.864;2022-08-19T01:37:44;34.17;;;27.90;;
8327;SDS011;4201;48.754;8.864;2022-08-19T01:40:11;33.50;;;28.53;;
8327;SDS011;4201;48.754;8.864;2022-08-19T01:42:38;29.07;;;24.10;;
8327;SDS011;4201;48.754;8.864;2022-08-19T01:45:06;33.13;;;28.90;;
8327;SDS011;4201;48.754;8.864;2022-08-19T01:47:33;33.20;;;26.40;;
8327;SDS011;4201;48.754;8.864;2022-08-19T01:49:59;27.90;;;24.83;;
8327;SDS011;4201;48.754;8.864;2022-08-19T01:52:26;30.50;;;26.60;;
8327;SDS011;4201;48.754;8.864;2022-08-19T01:54:52;31.23;;;27.87;;
8327;SDS011;4201;48.754;8.864;2022-08-19T01:57:20;30.60;;;25.17;;
8327;SDS011;4201;48.754;8.864;2022-08-19T01:59:46;34.17;;;27.77;;
8327;SDS011;4201;48.754;8.864;2022-08-19T02:02:12;34.77;;;27.67;;
8327;SDS011;4201;48.754;8.864;2022-08-19T02:04:39;33.73;;;28.67;;
8327;SDS011;4201;48.754;8.864;2022-08-19T02:07:05;36.67;;;28.10;;
8327;SDS011;4201;48.754;8.864;2022-08-19T02:09:33;30.93;;;26.63;;
8327;SDS011;4201;48.754;8.864;2022-08-19T02:11:59;34.87;;;28.20;;
8327;SDS011;4201;48.754;8.864;2022-08-19T02:14:27;29.63;;;26.00;;
8327;SDS011;4201;48.754;8.864;2022-08-19T02:16:53;32.07;;;28.13;;
8327;SDS011;4201;48.754;8.864;2022-08-19T02:19:19;33.77;;;28.37;;
8327;SDS011;4201;48.754;8.864;2022-08-19T02:21:46;30.37;;;27.13;;
8327;SDS011;4201;48.754;8.864;2022-08-19T02:24:12;30.47;;;27.27;;
8327;SDS011;4201;48.754;8.864;2022-08-19T02:26:38;32.77;;;28.40;;
8327;SDS011;4201;48.754;8.864;2022-08-19T02:29:05;35.87;;;28.17;;
8327;SDS011;4201;48.754;8.864;2022-08-19T02:31:32;29.93;;;26.33;;
8327;SDS011;4201;48.754;8.864;2022-08-19T02:33:59;36.23;;;29.33;;
8327;SDS011;4201;48.754;8.864;2022-08-19T02:36:25;33.20;;;29.00;;
8327;SDS011;4201;48.754;8.864;2022-08-19T02:38:52;35.13;;;26.87;;
8327;SDS011;4201;48.754;8.864;2022-08-19T02:41:19;33.13;;;29.53;;
8327;SDS011;4201;48.754;8.864;2022-08-19T02:43:46;33.10;;;28.93;;
8327;SDS011;4201;48.754;8.864;2022-08-19T02:48:39;35.90;;;29.80;;
8327;SDS011;4201;48.754;8.864;2022-08-19T02:51:06;34.27;;;30.23;;
8327;SDS011;4201;48.754;8.864;2022-08-19T02:53:32;39.87;;;34.73;;
8327;SDS011;4201;48.754;8.864;2022-08-19T02:55:59;38.10;;;30.73;;
8327;SDS011;4201;48.754;8.864;2022-08-19T02:58:25;39.20;;;33.30;;
8327;SDS011;4201;48.754;8.864;2022-08-19T03:00:53;38.10;;;32.80;;
8327;SDS011;4201;48.754;8.864;2022-08-19T03:03:19;39.93;;;33.70;;
8327;SDS011;4201;48.754;8.864;2022-08-19T03:05:47;35.80;;;31.77;;
8327;SDS011;4201;48.754;8.864;2022-08-19T03:08:14;45.20;;;34.77;;
8327;SDS011;4201;48.754;8.864;2022-08-19T03:10:41;40.47;;;34.43;;
8327;SDS011;4201;48.754;8.864;2022-08-19T03:13:09;36.77;;;32.80;;
8327;SDS011;4201;48.754;8.864;2022-08-19T03:15:38;40.53;;;35.27;;
8327;SDS011;4201;48.754;8.864;2022-08-19T03:18:04;42.40;;;36.23;;
8327;SDS011;4201;48.754;8.864;2022-08-19T03:20:30;38.43;;;34.30;;
8327;SDS011;4201;48.754;8.864;2022-08-19T03:22:59;42.33;;;33.43;;
8327;SDS011;4201;48.754;8.864;2022-08-19T03:25:25;40.83;;;36.43;;
8327;SDS011;4201;48.754;8.864;2022-08-19T03:27:51;39.17;;;34.90;;
8327;SDS011;4201;48.754;8.864;2022-08-19T03:30:17;37.20;;;32.23;;
8327;SDS011;4201;48.754;8.864;2022-08-19T03:32:44;41.23;;;32.93;;
8327;SDS011;4201;48.754;8.864;2022-08-19T03:35:10;38.53;;;30.77;;
8327;SDS011;4201;48.754;8.864;2022-08-19T03:37:36;43.40;;;34.80;;
8327;SDS011;4201;48.754;8.864;2022-08-19T03:40:04;37.87;;;33.10;;
8327;SDS011;4201;48.754;8.864;2022-08-19T03:42:30;44.43;;;34.93;;
8327;SDS011;4201;48.754;8.864;2022-08-19T03:44:57;37.97;;;33.90;;
8327;SDS011;4201;48.754;8.864;2022-08-19T03:47:23;46.40;;;37.33;;
8327;SDS011;4201;48.754;8.864;2022-08-19T03:49:50;41.40;;;36.90;;
8327;SDS011;4201;48.754;8.864;2022-08-19T03:52:16;40.60;;;33.50;;
8327;SDS011;4201;48.754;8.864;2022-08-19T03:54:42;44.83;;;36.57;;
8327;SDS011;4201;48.754;8.864;2022-08-19T03:57:11;40.50;;;34.53;;
8327;SDS011;4201;48.754;8.864;2022-08-19T03:59:37;41.20;;;34.13;;
8327;SDS011;4201;48.754;8.864;2022-08-19T04:02:06;45.53;;;36.90;;
8327;SDS011;4201;48.754;8.864;2022-08-19T04:04:34;40.33;;;34.97;;
8327;SDS011;4201;48.754;8.864;2022-08-19T04:07:00;41.07;;;34.27;;
8327;SDS011;4201;48.754;8.864;2022-08-19T04:09:26;39.73;;;34.00;;
8327;SDS011;4201;48.754;8.864;2022-08-19T04:11:54;39.93;;;34.57;;
8327;SDS011;4201;48.754;8.864;2022-08-19T04:14:25;40.37;;;33.50;;
8327;SDS011;4201;48.754;8.864;2022-08-19T04:16:54;46.53;;;38.00;;
8327;SDS011;4201;48.754;8.864;2022-08-19T04:19:20;40.60;;;35.93;;
8327;SDS011;4201;48.754;8.864;2022-08-19T04:21:49;50.37;;;37.10;;
8327;SDS011;4201;48.754;8.864;2022-08-19T04:24:15;43.63;;;37.70;;
8327;SDS011;4201;48.754;8.864;2022-08-19T04:26:42;38.03;;;33.93;;
8327;SDS011;4201;48.754;8.864;2022-08-19T04:29:09;45.90;;;35.60;;
8327;SDS011;4201;48.754;8.864;2022-08-19T04:31:37;43.83;;;36.63;;
8327;SDS011;4201;48.754;8.864;2022-08-19T04:34:05;44.50;;;35.40;;
8327;SDS011;4201;48.754;8.864;2022-08-19T04:36:32;42.13;;;36.87;;
8327;SDS011;4201;48.754;8.864;2022-08-19T04:39:00;37.70;;;32.83;;
8327;SDS011;4201;48.754;8.864;2022-08-19T04:41:27;41.63;;;35.03;;
8327;SDS011;4201;48.754;8.864;2022-08-19T04:44:25;47.30;;;35.23;;
8327;SDS011;4201;48.754;8.864;2022-08-19T04:46:56;44.70;;;37.23;;
8327;SDS011;4201;48.754;8.864;2022-08-19T04:49:23;44.60;;;36.77;;
8327;SDS011;4201;48.754;8.864;2022-08-19T04:51:51;43.67;;;36.20;;
8327;SDS011;4201;48.754;8.864;2022-08-19T04:54:19;43.87;;;37.60;;
8327;SDS011;4201;48.754;8.864;2022-08-19T04:56:47;44.63;;;34.03;;
8327;SDS011;4201;48.754;8.864;2022-08-19T04:59:15;42.93;;;37.27;;
8327;SDS011;4201;48.754;8.864;2022-08-19T05:01:42;41.30;;;34.83;;
8327;SDS011;4201;48.754;8.864;2022-08-19T05:04:09;42.47;;;37.87;;
8327;SDS011;4201;48.754;8.864;2022-08-19T05:06:35;42.23;;;37.00;;
8327;SDS011;4201;48.754;8.864;2022-08-19T05:09:02;42.43;;;35.77;;
8327;SDS011;4201;48.754;8.864;2022-08-19T05:11:29;43.30;;;37.10;;
8327;SDS011;4201;48.754;8.864;2022-08-19T05:13:56;47.67;;;37.50;;
8327;SDS011;4201;48.754;8.864;2022-08-19T05:16:23;46.17;;;37.07;;
8327;SDS011;4201;48.754;8.864;2022-08-19T05:18:49;37.20;;;31.73;;
8327;SDS011;4201;48.754;8.864;2022-08-19T05:21:33;39.77;;;34.03;;
8327;SDS011;4201;48.754;8.864;2022-08-19T05:24:18;41.03;;;35.80;;
8327;SDS011;4201;48.754;8.864;2022-08-19T05:26:48;44.07;;;37.00;;
8327;SDS011;4201;48.754;8.864;2022-08-19T05:29:16;40.40;;;34.67;;
8327;SDS011;4201;48.754;8.864;2022-08-19T05:31:42;46.23;;;37.00;;
8327;SDS011;4201;48.754;8.864;2022-08-19T05:34:09;41.03;;;35.90;;
8327;SDS011;4201;48.754;8.864;2022-08-19T05:36:38;43.33;;;38.53;;
8327;SDS011;4201;48.754;8.864;2022-08-19T05:39:05;43.40;;;34.97;;
8327;SDS011;4201;48.754;8.864;2022-08-19T05:41:31;44.23;;;35.80;;
8327;SDS011;4201;48.754;8.864;2022-08-19T05:43:57;41.07;;;36.37;;
8327;SDS011;4201;48.754;8.864;2022-08-19T05:46:24;45.30;;;36.80;;
8327;SDS011;4201;48.754;8.864;2022-08-19T05:48:50;44.43;;;36.87;;
8327;SDS011;4201;48.754;8.864;2022-08-19T05:51:17;46.33;;;38.37;;
8327;SDS011;4201;48.754;8.864;2022-08-19T05:53:44;38.50;;;32.87;;
8327;SDS011;4201;48.754;8.864;2022-08-19T05:56:12;46.40;;;35.20;;
8327;SDS011;4201;48.754;8.864;2022-08-19T05:58:39;39.93;;;34.87;;
8327;SDS011;4201;48.754;8.864;2022-08-19T06:01:09;40.27;;;34.80;;
8327;SDS011;4201;48.754;8.864;2022-08-19T06:03:36;43.43;;;37.07;;
8327;SDS011;4201;48.754;8.864;2022-08-19T06:06:04;40.43;;;34.30;;
8327;SDS011;4201;48.754;8.864;2022-08-19T06:08:32;40.57;;;35.23;;
8327;SDS011;4201;48.754;8.864;2022-08-19T06:11:12;41.07;;;36.57;;
8327;SDS011;4201;48.754;8.864;2022-08-19T06:13:39;38.13;;;32.87;;
8327;SDS011;4201;48.754;8.864;2022-08-19T06:16:05;41.47;;;34.87;;
8327;SDS011;4201;48.754;8.864;2022-08-19T06:18:31;38.13;;;33.40;;
8327;SDS011;4201;48.754;8.864;2022-08-19T06:20:58;38.40;;;33.20;;
8327;SDS011;4201;48.754;8.864;2022-08-19T06:23:25;39.67;;;35.10;;
8327;SDS011;4201;48.754;8.864;2022-08-19T06:25:51;42.13;;;32.67;;
8327;SDS011;4201;48.754;8.864;2022-08-19T06:28:19;36.90;;;33.00;;
8327;SDS011;4201;48.754;8.864;2022-08-19T06:30:46;37.03;;;32.90;;
8327;SDS011;4201;48.754;8.864;2022-08-19T06:33:12;37.63;;;33.40;;
8327;SDS011;4201;48.754;8.864;2022-08-19T06:35:39;38.10;;;33.07;;
8327;SDS011;4201;48.754;8.864;2022-08-19T06:38:05;37.27;;;33.27;;
8327;SDS011;4201;48.754;8.864;2022-08-19T06:40:32;39.80;;;33.63;;
8327;SDS011;4201;48.754;8.864;2022-08-19T06:42:58;34.90;;;30.80;;
8327;SDS011;4201;48.754;8.864;2022-08-19T06:45:28;35.90;;;32.00;;
8327;SDS011;4201;48.754;8.864;2022-08-19T06:47:55;34.43;;;30.13;;
8327;SDS011;4201;48.754;8.864;2022-08-19T06:50:21;35.50;;;30.43;;
8327;SDS011;4201;48.754;8.864;2022-08-19T06:52:48;36.53;;;30.90;;
8327;SDS011;4201;48.754;8.864;2022-08-19T06:55:14;35.23;;;31.53;;
8327;SDS011;4201;48.754;8.864;2022-08-19T06:57:41;41.00;;;30.50;;
8327;SDS011;4201;48.754;8.864;2022-08-19T07:00:08;36.33;;;30.63;;
8327;SDS011;4201;48.754;8.864;2022-08-19T07:02:39;33.63;;;29.33;;
8327;SDS011;4201;48.754;8.864;2022-08-19T07:05:06;34.63;;;26.67;;
8327;SDS011;4201;48.754;8.864;2022-08-19T07:07:32;36.67;;;31.27;;
8327;SDS011;4201;48.754;8.864;2022-08-19T07:09:59;36.07;;;30.47;;
8327;SDS011;4201;48.754;8.864;2022-08-19T07:12:26;34.47;;;30.57;;
8327;SDS011;4201;48.754;8.864;2022-08-19T07:14:53;30.43;;;26.90;;
8327;SDS011;4201;48.754;8.864;2022-08-19T07:17:19;35.00;;;31.17;;
8327;SDS011;4201;48.754;8.864;2022-08-19T07:19:47;33.67;;;28.37;;
8327;SDS011;4201;48.754;8.864;2022-08-19T07:22:15;33.77;;;30.07;;
8327;SDS011;4201;48.754;8.864;2022-08-19T07:24:42;30.60;;;27.00;;
8327;SDS011;4201;48.754;8.864;2022-08-19T07:27:09;31.00;;;27.20;;
8327;SDS011;4201;48.754;8.864;2022-08-19T07:29:35;30.43;;;26.20;;
8327;SDS011;4201;48.754;8.864;2022-08-19T07:32:02;32.80;;;29.40;;
8327;SDS011;4201;48.754;8.864;2022-08-19T07:34:30;30.63;;;27.37;;
8327;SDS011;4201;48.754;8.864;2022-08-19T07:36:59;31.30;;;28.00;;
8327;SDS011;4201;48.754;8.864;2022-08-19T07:39:27;34.70;;;27.30;;
8327;SDS011;4201;48.754;8.864;2022-08-19T07:41:54;32.50;;;28.40;;
8327;SDS011;4201;48.754;8.864;2022-08-19T07:44:21;30.00;;;26.80;;
8327;SDS011;4201;48.754;8.864;2022-08-19T07:46:55;32.10;;;28.50;;
8327;SDS011;4201;48.754;8.864;2022-08-19T07:49:22;33.50;;;27.77;;
8327;SDS011;4201;48.754;8.864;2022-08-19T07:51:49;29.87;;;26.10;;
8327;SDS011;4201;48.754;8.864;2022-08-19T07:54:17;32.03;;;26.20;;
8327;SDS011;4201;48.754;8.864;2022-08-19T07:56:44;31.63;;;26.87;;
8327;SDS011;4201;48.754;8.864;2022-08-19T07:59:10;31.23;;;25.37;;
8327;SDS011;4201;48.754;8.864;2022-08-19T08:01:37;31.53;;;27.93;;
8327;SDS011;4201;48.754;8.864;2022-08-19T08:04:05;32.77;;;27.93;;
8327;SDS011;4201;48.754;8.864;2022-08-19T08:06:49;28.50;;;25.50;;
8327;SDS011;4201;48.754;8.864;2022-08-19T08:09:35;30.87;;;25.43;;
8327;SDS011;4201;48.754;8.864;2022-08-19T08:12:03;33.30;;;28.60;;
8327;SDS011;4201;48.754;8.864;2022-08-19T08:14:32;32.37;;;26.27;;
8327;SDS011;4201;48.754;8.864;2022-08-19T08:17:00;28.70;;;25.13;;
8327;SDS011;4201;48.754;8.864;2022-08-19T08:19:27;29.37;;;24.13;;
8327;SDS011;4201;48.754;8.864;2022-08-19T08:21:54;25.70;;;23.00;;
8327;SDS011;4201;48.754;8.864;2022-08-19T08:24:20;27.30;;;23.50;;
8327;SDS011;4201;48.754;8.864;2022-08-19T08:26:48;26.83;;;23.93;;
8327;SDS011;4201;48.754;8.864;2022-08-19T08:29:14;32.13;;;27.00;;
8327;SDS011;4201;48.754;8.864;2022-08-19T08:31:41;28.20;;;23.80;;
8327;SDS011;4201;48.754;8.864;2022-08-19T08:34:07;26.30;;;23.50;;
8327;SDS011;4201;48.754;8.864;2022-08-19T08:36:35;28.33;;;25.30;;
8327;SDS011;4201;48.754;8.864;2022-08-19T08:39:03;25.33;;;22.50;;
8327;SDS011;4201;48.754;8.864;2022-08-19T08:41:31;26.93;;;22.93;;
8327;SDS011;4201;48.754;8.864;2022-08-19T08:44:02;27.83;;;24.20;;
8327;SDS011;4201;48.754;8.864;2022-08-19T08:46:30;27.10;;;24.23;;
8327;SDS011;4201;48.754;8.864;2022-08-19T08:49:02;26.67;;;22.00;;
8327;SDS011;4201;48.754;8.864;2022-08-19T08:51:33;25.27;;;22.67;;
8327;SDS011;4201;48.754;8.864;2022-08-19T08:54:01;25.23;;;22.53;;
8327;SDS011;4201;48.754;8.864;2022-08-19T08:56:27;27.63;;;22.83;;
8327;SDS011;4201;48.754;8.864;2022-08-19T08:58:56;27.50;;;21.93;;
8327;SDS011;4201;48.754;8.864;2022-08-19T09:01:24;25.23;;;22.67;;
8327;SDS011;4201;48.754;8.864;2022-08-19T09:03:51;27.43;;;23.53;;
8327;SDS011;4201;48.754;8.864;2022-08-19T09:06:19;25.90;;;23.30;;
8327;SDS011;4201;48.754;8.864;2022-08-19T09:08:49;32.57;;;25.10;;
8327;SDS011;4201;48.754;8.864;2022-08-19T09:11:19;26.60;;;23.80;;
8327;SDS011;4201;48.754;8.864;2022-08-19T09:13:54;27.70;;;24.83;;
8327;SDS011;4201;48.754;8.864;2022-08-19T09:16:22;26.33;;;22.93;;
8327;SDS011;4201;48.754;8.864;2022-08-19T09:18:51;27.13;;;24.40;;
8327;SDS011;4201;48.754;8.864;2022-08-19T09:21:18;27.83;;;24.23;;
8327;SDS011;4201;48.754;8.864;2022-08-19T09:23:45;26.40;;;23.80;;
8327;SDS011;4201;48.754;8.864;2022-08-19T09:26:12;25.00;;;21.87;;
8327;SDS011;4201;48.754;8.864;2022-08-19T09:28:39;25.10;;;21.30;;
8327;SDS011;4201;48.754;8.864;2022-08-19T09:31:08;23.97;;;21.43;;
8327;SDS011;4201;48.754;8.864;2022-08-19T09:33:34;26.30;;;23.47;;
8327;SDS011;4201;48.754;8.864;2022-08-19T09:36:03;29.57;;;23.40;;
8327;SDS011;4201;48.754;8.864;2022-08-19T09:38:29;26.63;;;23.07;;
8327;SDS011;4201;48.754;8.864;2022-08-19T09:41:01;22.93;;;19.80;;
8327;SDS011;4201;48.754;8.864;2022-08-19T09:43:27;25.13;;;22.60;;
8327;SDS011;4201;48.754;8.864;2022-08-19T09:45:53;24.83;;;21.53;;
8327;SDS011;4201;48.754;8.864;2022-08-19T09:48:20;23.60;;;21.30;;
8327;SDS011;4201;48.754;8.864;2022-08-19T09:50:46;25.20;;;22.33;;
8327;SDS011;4201;48.754;8.864;2022-08-19T09:53:13;23.93;;;20.63;;
8327;SDS011;4201;48.754;8.864;2022-08-19T09:55:41;24.47;;;21.90;;
8327;SDS011;4201;48.754;8.864;2022-08-19T09:58:07;24.93;;;22.37;;
8327;SDS011;4201;48.754;8.864;2022-08-19T10:00:33;28.13;;;20.47;;
8327;SDS011;4201;48.754;8.864;2022-08-19T10:03:00;22.13;;;18.63;;
8327;SDS011;4201;48.754;8.864;2022-08-19T10:05:26;22.70;;;20.37;;
8327;SDS011;4201;48.754;8.864;2022-08-19T10:08:10;21.47;;;19.20;;
8327;SDS011;4201;48.754;8.864;2022-08-19T10:10:38;19.93;;;17.67;;
8327;SDS011;4201;48.754;8.864;2022-08-19T10:13:04;24.37;;;18.67;;
8327;SDS011;4201;48.754;8.864;2022-08-19T10:15:30;17.63;;;15.93;;
8327;SDS011;4201;48.754;8.864;2022-08-19T10:17:56;18.03;;;15.97;;
8327;SDS011;4201;48.754;8.864;2022-08-19T10:20:24;20.13;;;15.40;;
8327;SDS011;4201;48.754;8.864;2022-08-19T10:22:50;19.63;;;16.20;;
8327;SDS011;4201;48.754;8.864;2022-08-19T10:25:17;18.80;;;15.50;;
8327;SDS011;4201;48.754;8.864;2022-08-19T10:27:44;17.90;;;16.00;;
8327;SDS011;4201;48.754;8.864;2022-08-19T10:30:11;21.53;;;17.83;;
8327;SDS011;4201;48.754;8.864;2022-08-19T10:32:38;18.97;;;17.07;;
8327;SDS011;4201;48.754;8.864;2022-08-19T10:35:05;21.48;;;19.38;;
8327;SDS011;4201;48.754;8.864;2022-08-19T10:37:33;17.23;;;15.47;;
8327;SDS011;4201;48.754;8.864;2022-08-19T10:39:59;23.07;;;17.33;;
8327;SDS011;4201;48.754;8.864;2022-08-19T10:42:26;19.13;;;15.93;;
8327;SDS011;4201;48.754;8.864;2022-08-19T10:44:54;18.40;;;16.57;;
8327;SDS011;4201;48.754;8.864;2022-08-19T10:47:20;19.73;;;16.13;;
8327;SDS011;4201;48.754;8.864;2022-08-19T10:49:48;17.30;;;15.33;;
8327;SDS011;4201;48.754;8.864;2022-08-19T10:52:32;17.67;;;15.27;;
8327;SDS011;4201;48.754;8.864;2022-08-19T10:55:02;19.80;;;16.50;;
8327;SDS011;4201;48.754;8.864;2022-08-19T10:57:46;18.37;;;15.60;;
8327;SDS011;4201;48.754;8.864;2022-08-19T11:00:14;18.73;;;16.77;;
8327;SDS011;4201;48.754;8.864;2022-08-19T11:02:40;21.27;;;15.73;;
8327;SDS011;4201;48.754;8.864;2022-08-19T11:05:07;16.80;;;15.03;;
8327;SDS011;4201;48.754;8.864;2022-08-19T11:07:35;16.70;;;14.73;;
8327;SDS011;4201;48.754;8.864;2022-08-19T11:10:02;24.70;;;15.00;;
8327;SDS011;4201;48.754;8.864;2022-08-19T11:12:29;18.87;;;15.60;;
8327;SDS011;4201;48.754;8.864;2022-08-19T11:14:55;17.73;;;13.57;;
8327;SDS011;4201;48.754;8.864;2022-08-19T11:17:22;15.33;;;13.40;;
8327;SDS011;4201;48.754;8.864;2022-08-19T11:19:49;15.33;;;13.80;;
8327;SDS011;4201;48.754;8.864;2022-08-19T11:22:15;14.50;;;13.10;;
8327;SDS011;4201;48.754;8.864;2022-08-19T11:24:42;22.37;;;14.40;;
8327;SDS011;4201;48.754;8.864;2022-08-19T11:27:09;16.67;;;14.80;;
8327;SDS011;4201;48.754;8.864;2022-08-19T11:29:35;18.20;;;13.53;;
8327;SDS011;4201;48.754;8.864;2022-08-19T11:32:04;14.97;;;12.60;;
8327;SDS011;4201;48.754;8.864;2022-08-19T11:34:32;16.73;;;13.10;;
8327;SDS011;4201;48.754;8.864;2022-08-19T11:36:59;15.77;;;13.07;;
8327;SDS011;4201;48.754;8.864;2022-08-19T11:39:28;14.50;;;12.97;;
8327;SDS011;4201;48.754;8.864;2022-08-19T11:41:54;15.07;;;13.50;;
8327;SDS011;4201;48.754;8.864;2022-08-19T11:44:20;15.17;;;13.67;;
8327;SDS011;4201;48.754;8.864;2022-08-19T11:46:47;16.70;;;12.50;;
8327;SDS011;4201;48.754;8.864;2022-08-19T11:49:13;15.87;;;13.33;;
8327;SDS011;4201;48.754;8.864;2022-08-19T11:51:41;13.70;;;12.17;;
8327;SDS011;4201;48.754;8.864;2022-08-19T11:54:08;13.30;;;11.17;;
8327;SDS011;4201;48.754;8.864;2022-08-19T11:56:36;12.37;;;11.07;;
8327;SDS011;4201;48.754;8.864;2022-08-19T11:59:02;12.27;;;10.93;;
8327;SDS011;4201;48.754;8.864;2022-08-19T12:01:28;12.70;;;11.13;;
8327;SDS011;4201;48.754;8.864;2022-08-19T12:03:56;13.90;;;10.80;;
8327;SDS011;4201;48.754;8.864;2022-08-19T12:06:24;11.80;;;9.73;;
8327;SDS011;4201;48.754;8.864;2022-08-19T12:08:55;12.20;;;9.00;;
8327;SDS011;4201;48.754;8.864;2022-08-19T12:11:21;9.77;;;8.87;;
8327;SDS011;4201;48.754;8.864;2022-08-19T12:13:48;11.63;;;9.30;;
8327;SDS011;4201;48.754;8.864;2022-08-19T12:16:15;9.10;;;8.20;;
8327;SDS011;4201;48.754;8.864;2022-08-19T12:18:43;10.80;;;8.97;;
8327;SDS011;4201;48.754;8.864;2022-08-19T12:21:11;10.47;;;9.37;;
8327;SDS011;4201;48.754;8.864;2022-08-19T12:23:38;9.63;;;8.63;;
8327;SDS011;4201;48.754;8.864;2022-08-19T12:26:06;9.93;;;8.93;;
8327;SDS011;4201;48.754;8.864;2022-08-19T12:28:32;9.83;;;8.53;;
8327;SDS011;4201;48.754;8.864;2022-08-19T12:30:59;8.50;;;7.60;;
8327;SDS011;4201;48.754;8.864;2022-08-19T12:33:25;9.93;;;8.20;;
8327;SDS011;4201;48.754;8.864;2022-08-19T12:35:53;10.10;;;8.37;;
8327;SDS011;4201;48.754;8.864;2022-08-19T12:38:19;11.13;;;8.73;;
8327;SDS011;4201;48.754;8.864;2022-08-19T12:40:49;8.67;;;7.20;;
8327;SDS011;4201;48.754;8.864;2022-08-19T12:43:18;12.33;;;9.20;;
8327;SDS011;4201;48.754;8.864;2022-08-19T12:45:45;9.87;;;7.87;;
8327;SDS011;4201;48.754;8.864;2022-08-19T12:48:12;10.37;;;7.53;;
8327;SDS011;4201;48.754;8.864;2022-08-19T12:50:39;7.60;;;6.50;;
8327;SDS011;4201;48.754;8.864;2022-08-19T12:53:05;8.20;;;7.33;;
8327;SDS011;4201;48.754;8.864;2022-08-19T12:55:32;9.37;;;7.60;;
8327;SDS011;4201;48.754;8.864;2022-08-19T12:57:58;14.27;;;8.10;;
8327;SDS011;4201;48.754;8.864;2022-08-19T13:00:27;10.07;;;8.73;;
8327;SDS011;4201;48.754;8.864;2022-08-19T13:02:56;9.00;;;8.20;;
8327;SDS011;4201;48.754;8.864;2022-08-19T13:05:23;10.30;;;8.07;;
8327;SDS011;4201;48.754;8.864;2022-08-19T13:07:50;9.30;;;8.40;;
8327;SDS011;4201;48.754;8.864;2022-08-19T13:10:18;12.80;;;9.03;;
8327;SDS011;4201;48.754;8.864;2022-08-19T13:12:44;11.33;;;10.13;;
8327;SDS011;4201;48.754;8.864;2022-08-19T13:15:12;11.30;;;10.20;;
8327;SDS011;4201;48.754;8.864;2022-08-19T13:17:40;10.63;;;9.73;;
8327;SDS011;4201;48.754;8.864;2022-08-19T13:20:07;10.50;;;9.53;;
8327;SDS011;4201;48.754;8.864;2022-08-19T13:22:34;11.90;;;10.47;;
8327;SDS011;4201;48.754;8.864;2022-08-19T13:25:01;12.43;;;11.23;;
8327;SDS011;4201;48.754;8.864;2022-08-19T13:27:28;12.13;;;11.03;;
8327;SDS011;4201;48.754;8.864;2022-08-19T13:29:54;11.60;;;10.50;;
8327;SDS011;4201;48.754;8.864;2022-08-19T13:32:39;11.73;;;10.63;;
8327;SDS011;4201;48.754;8.864;2022-08-19T13:35:23;12.70;;;10.20;;
8327;SDS011;4201;48.754;8.864;2022-08-19T13:37:50;11.90;;;10.83;;
8327;SDS011;4201;48.754;8.864;2022-08-19T13:40:17;11.67;;;10.53;;
8327;SDS011;4201;48.754;8.864;2022-08-19T13:42:45;15.83;;;10.93;;
8327;SDS011;4201;48.754;8.864;2022-08-19T13:45:12;11.20;;;10.10;;
8327;SDS011;4201;48.754;8.864;2022-08-19T13:47:41;11.10;;;10.10;;
8327;SDS011;4201;48.754;8.864;2022-08-19T13:50:09;12.43;;;10.80;;
8327;SDS011;4201;48.754;8.864;2022-08-19T13:52:35;13.93;;;11.50;;
8327;SDS011;4201;48.754;8.864;2022-08-19T13:55:02;12.70;;;11.60;;
8327;SDS011;4201;48.754;8.864;2022-08-19T13:57:29;11.63;;;10.43;;
8327;SDS011;4201;48.754;8.864;2022-08-19T13:59:55;11.90;;;10.77;;
8327;SDS011;4201;48.754;8.864;2022-08-19T14:02:23;11.50;;;10.50;;
8327;SDS011;4201;48.754;8.864;2022-08-19T14:04:50;12.87;;;11.37;;
8327;SDS011;4201;48.754;8.864;2022-08-19T14:07:16;12.00;;;10.80;;
8327;SDS011;4201;48.754;8.864;2022-08-19T14:09:43;11.87;;;10.77;;
8327;SDS011;4201;48.754;8.864;2022-08-19T14:12:09;10.93;;;10.00;;
8327;SDS011;4201;48.754;8.864;2022-08-19T14:14:36;12.50;;;11.40;;
8327;SDS011;4201;48.754;8.864;2022-08-19T14:17:04;11.33;;;10.33;;
8327;SDS011;4201;48.754;8.864;2022-08-19T14:19:31;11.50;;;10.40;;
8327;SDS011;4201;48.754;8.864;2022-08-19T14:21:58;10.47;;;9.57;;
8327;SDS011;4201;48.754;8.864;2022-08-19T14:24:25;12.23;;;11.03;;
8327;SDS011;4201;48.754;8.864;2022-08-19T14:26:51;11.20;;;10.00;;
8327;SDS011;4201;48.754;8.864;2022-08-19T14:29:17;11.40;;;10.20;;
8327;SDS011;4201;48.754;8.864;2022-08-19T14:31:43;10.37;;;9.37;;
8327;SDS011;4201;48.754;8.864;2022-08-19T14:34:10;11.30;;;10.20;;
8327;SDS011;4201;48.754;8.864;2022-08-19T14:36:37;13.07;;;9.83;;
8327;SDS011;4201;48.754;8.864;2022-08-19T14:39:05;14.40;;;10.10;;
8327;SDS011;4201;48.754;8.864;2022-08-19T14:41:31;10.13;;;9.23;;
8327;SDS011;4201;48.754;8.864;2022-08-19T14:43:58;11.10;;;10.00;;
8327;SDS011;4201;48.754;8.864;2022-08-19T14:46:26;10.70;;;9.60;;
8327;SDS011;4201;48.754;8.864;2022-08-19T14:48:54;11.17;;;10.13;;
8327;SDS011;4201;48.754;8.864;2022-08-19T14:51:23;10.80;;;9.90;;
8327;SDS011;4201;48.754;8.864;2022-08-19T14:53:51;10.67;;;9.53;;
8327;SDS011;4201;48.754;8.864;2022-08-19T14:56:19;10.93;;;9.93;;